createdAt,value
2023-05-05T00:00:00.000Z,17.89
2023-05-05T00:15:00.000Z,18.71
2023-05-05T00:30:00.000Z,19.88
2023-05-05T00:45:00.000Z,21.09
2023-05-05T01:00:00.000Z,19.98
2023-05-05T01:15:00.000Z,23.52
2023-05-05T01:30:00.000Z,23.11
2023-05-05T01:45:00.000Z,20.88
2023-05-05T02:00:00.000Z,20.41
2023-05-05T02:15:00.000Z,21.81
2023-05-05T02:30:00.000Z,22.64
2023-05-05T02:45:00.000Z,21.62
2023-05-05T03:00:00.000Z,24.47
2023-05-05T03:15:00.000Z,26.14
2023-05-05T03:30:00.000Z,22.89
2023-05-05T03:45:00.000Z,24.82
2023-05-05T04:00:00.000Z,24.79
2023-05-05T04:15:00.000Z,22.29
2023-05-05T04:30:00.000Z,14.21
2023-05-05T04:45:00.000Z,8.72
2023-05-05T05:00:00.000Z,8.28
2023-05-05T05:15:00.000Z,8.12
2023-05-05T05:30:00.000Z,7.6
2023-05-05T05:45:00.000Z,7.48
2023-05-05T06:00:00.000Z,7.41
2023-05-05T06:15:00.000Z,7.34
2023-05-05T06:30:00.000Z,7.46
2023-05-05T06:45:00.000Z,7.35
2023-05-05T07:00:00.000Z,7.25
2023-05-05T07:15:00.000Z,6.84
2023-05-05T07:30:00.000Z,7.08
2023-05-05T07:45:00.000Z,7.24
2023-05-05T08:00:00.000Z,7.21
2023-05-05T08:15:00.000Z,7.11
2023-05-05T08:30:00.000Z,7.68
2023-05-05T08:45:00.000Z,8.49
2023-05-05T09:00:00.000Z,13.22
2023-05-05T09:15:00.000Z,8.64
2023-05-05T09:30:00.000Z,10.69
2023-05-05T09:45:00.000Z,12.65
2023-05-05T10:00:00.000Z,12.04
2023-05-05T10:15:00.000Z,11.8
2023-05-05T10:30:00.000Z,10.12
2023-05-05T10:45:00.000Z,11.38
2023-05-05T11:00:00.000Z,10
2023-05-05T11:15:00.000Z,8.41
2023-05-05T11:30:00.000Z,9.59
2023-05-05T11:45:00.000Z,9.91
2023-05-05T12:00:00.000Z,8.91
2023-05-05T12:15:00.000Z,7.91
2023-05-05T12:30:00.000Z,8.59
2023-05-05T12:45:00.000Z,8.6
2023-05-05T13:00:00.000Z,10.08
2023-05-05T13:15:00.000Z,9.81
2023-05-05T13:30:00.000Z,10.12
2023-05-05T13:45:00.000Z,9.72
2023-05-05T14:00:00.000Z,9.12
2023-05-05T14:15:00.000Z,10.12
2023-05-05T14:30:00.000Z,10.91
2023-05-05T14:45:00.000Z,10.31
2023-05-05T15:00:00.000Z,10.13
2023-05-05T15:15:00.000Z,10.04
2023-05-05T15:30:00.000Z,10.12
2023-05-05T15:45:00.000Z,10.33
2023-05-05T16:00:00.000Z,11.85
2023-05-05T16:15:00.000Z,12.99
2023-05-05T16:30:00.000Z,13.46
2023-05-05T16:45:00.000Z,13.12
2023-05-05T17:00:00.000Z,13.18
2023-05-05T17:15:00.000Z,14.09
2023-05-05T17:30:00.000Z,16.74
2023-05-05T17:45:00.000Z,17.75
2023-05-05T18:00:00.000Z,19.75
2023-05-05T18:15:00.000Z,20.52
2023-05-05T18:30:00.000Z,21.31
2023-05-05T18:45:00.000Z,21
2023-05-05T19:00:00.000Z,23.84
2023-05-05T19:15:00.000Z,26.26
2023-05-05T19:30:00.000Z,23.62
2023-05-05T19:45:00.000Z,23.55
2023-05-05T20:00:00.000Z,25.15
2023-05-05T20:15:00.000Z,23.47
2023-05-05T20:30:00.000Z,28.91
2023-05-05T20:45:00.000Z,8.74
2023-05-05T21:00:00.000Z,7.04
2023-05-05T21:15:00.000Z,7.24
2023-05-05T21:30:00.000Z,7.52
2023-05-05T21:45:00.000Z,9.27
2023-05-05T22:00:00.000Z,15.32
2023-05-05T22:15:00.000Z,7.42
2023-05-05T22:30:00.000Z,7.32
2023-05-05T22:45:00.000Z,7.32
2023-05-05T23:00:00.000Z,7.16
2023-05-05T23:15:00.000Z,6.27
2023-05-05T23:30:00.000Z,5.38
2023-05-05T23:45:00.000Z,5.26
